sensor_id;sensor_type;location;lat;lon;timestamp;pressure;altitude;pressure_sealevel;temperature;humidity
58092;BME280;43896;48.178;11.578;2023-02-23T00:01:56;95491.09;;;10.35;58.38
58092;BME280;43896;48.178;11.578;2023-02-23T00:04:23;95485.34;;;10.31;58.32
58092;BME280;43896;48.178;11.578;2023-02-23T00:06:48;95493.72;;;10.35;58.20
58092;BME280;43896;48.178;11.578;2023-02-23T00:09:16;95498.97;;;10.35;58.71
58092;BME280;43896;48.178;11.578;2023-02-23T00:11:56;95471.31;;;10.23;58.89
58092;BME280;43896;48.178;11.578;2023-02-23T00:14:25;95501.44;;;10.37;58.46
58092;BME280;43896;48.178;11.578;2023-02-23T00:16:55;95500.75;;;10.35;58.74
58092;BME280;43896;48.178;11.578;2023-02-23T00:19:21;95486.78;;;10.26;58.67
58092;BME280;43896;48.178;11.578;2023-02-23T00:21:48;95490.91;;;10.28;58.89
58092;BME280;43896;48.178;11.578;2023-02-23T00:24:15;95504.56;;;10.32;59.08
58092;BME280;43896;48.178;11.578;2023-02-23T00:26:43;95483.50;;;10.16;58.90
58092;BME280;43896;48.178;11.578;2023-02-23T00:29:14;95501.56;;;10.19;59.62
58092;BME280;43896;48.178;11.578;2023-02-23T00:31:44;95506.97;;;10.17;60.06
58092;BME280;43896;48.178;11.578;2023-02-23T00:34:11;95502.72;;;10.16;59.94
58092;BME280;43896;48.178;11.578;2023-02-23T00:36:37;95495.66;;;10.17;59.37
58092;BME280;43896;48.178;11.578;2023-02-23T00:39:06;95499.41;;;10.22;59.73
58092;BME280;43896;48.178;11.578;2023-02-23T00:41:45;95510.94;;;10.21;59.59
58092;BME280;43896;48.178;11.578;2023-02-23T00:44:11;95490.03;;;9.95;60.46
58092;BME280;43896;48.178;11.578;2023-02-23T00:46:39;95506.63;;;10.04;60.74
58092;BME280;43896;48.178;11.578;2023-02-23T00:49:06;95492.19;;;10.00;60.79
58092;BME280;43896;48.178;11.578;2023-02-23T00:51:31;95504.34;;;10.09;60.46
58092;BME280;43896;48.178;11.578;2023-02-23T00:53:58;95498.59;;;10.13;60.25
58092;BME280;43896;48.178;11.578;2023-02-23T00:56:24;95508.28;;;10.13;60.66
58092;BME280;43896;48.178;11.578;2023-02-23T00:58:50;95489.72;;;10.06;60.57
58092;BME280;43896;48.178;11.578;2023-02-23T01:01:15;95506.66;;;10.12;61.02
58092;BME280;43896;48.178;11.578;2023-02-23T01:03:42;95501.41;;;10.20;60.56
58092;BME280;43896;48.178;11.578;2023-02-23T01:06:10;95505.66;;;10.29;60.27
58092;BME280;43896;48.178;11.578;2023-02-23T01:08:39;95503.88;;;10.30;60.24
58092;BME280;43896;48.178;11.578;2023-02-23T01:11:10;95504.41;;;10.34;60.37
58092;BME280;43896;48.178;11.578;2023-02-23T01:13:36;95498.13;;;10.26;60.47
58092;BME280;43896;48.178;11.578;2023-02-23T01:16:11;95499.59;;;10.21;60.43
58092;BME280;43896;48.178;11.578;2023-02-23T01:18:37;95505.84;;;10.20;61.31
58092;BME280;43896;48.178;11.578;2023-02-23T01:21:03;95507.78;;;10.18;60.87
58092;BME280;43896;48.178;11.578;2023-02-23T01:23:32;95504.19;;;10.27;60.81
58092;BME280;43896;48.178;11.578;2023-02-23T01:25:58;95495.63;;;10.08;60.97
58092;BME280;43896;48.178;11.578;2023-02-23T01:28:23;95492.53;;;10.13;60.96
58092;BME280;43896;48.178;11.578;2023-02-23T01:30:49;95491.69;;;10.12;61.15
58092;BME280;43896;48.178;11.578;2023-02-23T01:33:15;95502.72;;;10.16;61.04
58092;BME280;43896;48.178;11.578;2023-02-23T01:35:40;95508.47;;;10.11;61.01
58092;BME280;43896;48.178;11.578;2023-02-23T01:38:05;95500.91;;;10.17;60.88
58092;BME280;43896;48.178;11.578;2023-02-23T01:40:31;95514.38;;;10.22;60.73
58092;BME280;43896;48.178;11.578;2023-02-23T01:43:18;95472.81;;;10.09;60.84
58092;BME280;43896;48.178;11.578;2023-02-23T01:45:51;95501.56;;;10.19;61.11
58092;BME280;43896;48.178;11.578;2023-02-23T01:48:21;95492.38;;;10.14;61.21
58092;BME280;43896;48.178;11.578;2023-02-23T01:50:54;95495.63;;;10.08;61.33
58092;BME280;43896;48.178;11.578;2023-02-23T01:53:20;95504.19;;;10.10;61.11
58092;BME280;43896;48.178;11.578;2023-02-23T01:55:53;95483.50;;;9.99;61.05
58092;BME280;43896;48.178;11.578;2023-02-23T01:58:21;95503.53;;;10.17;60.96
58092;BME280;43896;48.178;11.578;2023-02-23T02:00:58;95496.31;;;10.19;61.08
58092;BME280;43896;48.178;11.578;2023-02-23T02:03:34;95495.34;;;10.20;61.00
58092;BME280;43896;48.178;11.578;2023-02-23T02:06:01;95496.31;;;10.19;60.93
58092;BME280;43896;48.178;11.578;2023-02-23T02:08:31;95492.53;;;10.13;61.33
58092;BME280;43896;48.178;11.578;2023-02-23T02:10:57;95475.63;;;9.99;61.39
58092;BME280;43896;48.178;11.578;2023-02-23T02:13:26;95473.00;;;10.07;61.38
58092;BME280;43896;48.178;11.578;2023-02-23T02:21:47;95466.91;;;10.07;61.18
58092;BME280;43896;48.178;11.578;2023-02-23T02:25:03;95462.81;;;10.04;61.37
58092;BME280;43896;48.178;11.578;2023-02-23T02:30:47;95467.72;;;10.16;61.37
58092;BME280;43896;48.178;11.578;2023-02-23T02:38:54;95468.38;;;10.01;61.51
58092;BME280;43896;48.178;11.578;2023-02-23T02:41:31;95470.19;;;10.01;61.69
58092;BME280;43896;48.178;11.578;2023-02-23T02:45:02;95453.75;;;9.99;61.40
58092;BME280;43896;48.178;11.578;2023-02-23T02:47:16;95461.50;;;9.92;61.69
58092;BME280;43896;48.178;11.578;2023-02-23T02:50:02;95452.78;;;9.91;61.50
58092;BME280;43896;48.178;11.578;2023-02-23T02:52:36;95456.56;;;9.97;61.63
58092;BME280;43896;48.178;11.578;2023-02-23T02:55:13;95477.56;;;10.05;61.51
58092;BME280;43896;48.178;11.578;2023-02-23T02:57:42;95479.06;;;10.00;61.59
58092;BME280;43896;48.178;11.578;2023-02-23T03:00:16;95471.00;;;10.01;61.66
58092;BME280;43896;48.178;11.578;2023-02-23T03:03:00;95469.50;;;9.99;61.80
58092;BME280;43896;48.178;11.578;2023-02-23T03:05:47;95476.91;;;10.03;61.28
58092;BME280;43896;48.178;11.578;2023-02-23T03:08:36;95480.84;;;9.91;61.98
58092;BME280;43896;48.178;11.578;2023-02-23T03:11:24;95480.84;;;9.91;61.89
58092;BME280;43896;48.178;11.578;2023-02-23T03:14:16;95482.50;;;9.92;61.69
58092;BME280;43896;48.178;11.578;2023-02-23T03:17:30;95480.03;;;9.90;61.83
58092;BME280;43896;48.178;11.578;2023-02-23T03:20:26;95455.41;;;9.75;62.05
58092;BME280;43896;48.178;11.578;2023-02-23T03:23:19;95488.91;;;9.89;61.82
58092;BME280;43896;48.178;11.578;2023-02-23T03:31:52;95482.19;;;9.87;62.17
58092;BME280;43896;48.178;11.578;2023-02-23T03:34:43;95456.38;;;9.82;62.22
58092;BME280;43896;48.178;11.578;2023-02-23T03:37:38;95473.63;;;9.85;62.13
58092;BME280;43896;48.178;11.578;2023-02-23T03:40:33;95471.94;;;9.67;62.71
58092;BME280;43896;48.178;11.578;2023-02-23T03:43:22;95460.25;;;9.45;62.78
58092;BME280;43896;48.178;11.578;2023-02-23T03:46:08;95492.75;;;9.44;63.52
58092;BME280;43896;48.178;11.578;2023-02-23T03:48:56;95479.53;;;9.19;63.93
58092;BME280;43896;48.178;11.578;2023-02-23T03:51:42;95480.22;;;9.30;63.80
58092;BME280;43896;48.178;11.578;2023-02-23T03:57:15;95475.34;;;9.43;63.44
58092;BME280;43896;48.178;11.578;2023-02-23T04:00:05;95496.06;;;9.54;63.17
58092;BME280;43896;48.178;11.578;2023-02-23T04:02:52;95486.50;;;9.37;62.89
58092;BME280;43896;48.178;11.578;2023-02-23T04:05:39;95498.88;;;9.18;63.99
58092;BME280;43896;48.178;11.578;2023-02-23T04:08:29;95495.75;;;9.15;64.36
58092;BME280;43896;48.178;11.578;2023-02-23T04:11:24;95471.13;;;9.08;63.68
58092;BME280;43896;48.178;11.578;2023-02-23T04:14:17;95498.09;;;9.26;64.01
58092;BME280;43896;48.178;11.578;2023-02-23T04:16:44;95464.75;;;9.10;63.63
58092;BME280;43896;48.178;11.578;2023-02-23T04:19:10;95485.56;;;9.12;63.70
58092;BME280;43896;48.178;11.578;2023-02-23T04:21:35;95468.78;;;8.96;64.32
58092;BME280;43896;48.178;11.578;2023-02-23T04:24:01;95504.44;;;9.15;64.44
58092;BME280;43896;48.178;11.578;2023-02-23T04:26:26;95503.94;;;9.12;64.58
58092;BME280;43896;48.178;11.578;2023-02-23T04:28:51;95505.06;;;9.09;64.74
58092;BME280;43896;48.178;11.578;2023-02-23T04:31:16;95487.50;;;9.01;65.13
58092;BME280;43896;48.178;11.578;2023-02-23T04:33:42;95496.22;;;9.10;64.67
58092;BME280;43896;48.178;11.578;2023-02-23T04:36:08;95482.09;;;9.03;64.51
58092;BME280;43896;48.178;11.578;2023-02-23T04:38:33;95472.38;;;8.95;64.33
58092;BME280;43896;48.178;11.578;2023-02-23T04:40:58;95493.56;;;9.02;64.76
58092;BME280;43896;48.178;11.578;2023-02-23T04:43:24;95482.50;;;8.82;64.71
58092;BME280;43896;48.178;11.578;2023-02-23T04:45:49;95485.28;;;8.89;64.36
58092;BME280;43896;48.178;11.578;2023-02-23T04:48:14;95468.84;;;8.78;64.43
58092;BME280;43896;48.178;11.578;2023-02-23T04:50:39;95484.41;;;8.72;64.72
58092;BME280;43896;48.178;11.578;2023-02-23T04:53:05;95500.72;;;8.66;65.24
58092;BME280;43896;48.178;11.578;2023-02-23T04:55:30;95483.94;;;8.50;66.15
58092;BME280;43896;48.178;11.578;2023-02-23T04:57:58;95499.19;;;8.55;65.73
58092;BME280;43896;48.178;11.578;2023-02-23T05:00:24;95475.88;;;8.25;66.38
58092;BME280;43896;48.178;11.578;2023-02-23T05:02:50;95498.16;;;8.30;67.25
58092;BME280;43896;48.178;11.578;2023-02-23T05:05:15;95484.69;;;8.24;66.54
58092;BME280;43896;48.178;11.578;2023-02-23T05:07:40;95499.84;;;8.39;66.22
58092;BME280;43896;48.178;11.578;2023-02-23T05:10:07;95514.91;;;8.37;66.13
58092;BME280;43896;48.178;11.578;2023-02-23T05:12:32;95511.78;;;8.51;65.65
58092;BME280;43896;48.178;11.578;2023-02-23T05:14:58;95509.69;;;8.55;64.85
58092;BME280;43896;48.178;11.578;2023-02-23T05:17:24;95511.66;;;8.53;65.22
58092;BME280;43896;48.178;11.578;2023-02-23T05:19:49;95503.56;;;8.46;64.93
58092;BME280;43896;48.178;11.578;2023-02-23T05:22:15;95502.88;;;8.44;65.20
58092;BME280;43896;48.178;11.578;2023-02-23T05:24:41;95490.97;;;8.32;65.68
58092;BME280;43896;48.178;11.578;2023-02-23T05:27:07;95499.97;;;8.29;66.11
58092;BME280;43896;48.178;11.578;2023-02-23T05:29:33;95507.31;;;8.25;66.66
58092;BME280;43896;48.178;11.578;2023-02-23T05:31:59;95505.34;;;8.27;66.53
58092;BME280;43896;48.178;11.578;2023-02-23T05:34:24;95489.63;;;8.27;67.14
58092;BME280;43896;48.178;11.578;2023-02-23T05:36:49;95497.88;;;8.33;65.88
58092;BME280;43896;48.178;11.578;2023-02-23T05:39:15;95510.91;;;8.42;66.61
58092;BME280;43896;48.178;11.578;2023-02-23T05:41:40;95496.06;;;8.33;67.17
58092;BME280;43896;48.178;11.578;2023-02-23T05:44:05;95508.72;;;8.38;66.39
58092;BME280;43896;48.178;11.578;2023-02-23T05:46:30;95496.00;;;8.25;66.65
58092;BME280;43896;48.178;11.578;2023-02-23T05:48:57;95526.63;;;8.24;67.62
58092;BME280;43896;48.178;11.578;2023-02-23T05:51:25;95499.22;;;8.19;66.65
58092;BME280;43896;48.178;11.578;2023-02-23T05:53:51;95506.84;;;8.30;66.84
58092;BME280;43896;48.178;11.578;2023-02-23T05:56:17;95512.44;;;8.35;66.76
58092;BME280;43896;48.178;11.578;2023-02-23T05:58:55;95510.81;;;8.34;66.81
58092;BME280;43896;48.178;11.578;2023-02-23T06:01:26;95527.31;;;8.44;67.03
58092;BME280;43896;48.178;11.578;2023-02-23T06:03:51;95520.91;;;8.47;66.62
58092;BME280;43896;48.178;11.578;2023-02-23T06:06:17;95523.91;;;8.52;66.43
58092;BME280;43896;48.178;11.578;2023-02-23T06:08:43;95524.56;;;8.54;66.85
58092;BME280;43896;48.178;11.578;2023-02-23T06:11:08;95514.72;;;8.48;66.48
58092;BME280;43896;48.178;11.578;2023-02-23T06:13:34;95524.25;;;8.57;66.76
58092;BME280;43896;48.178;11.578;2023-02-23T06:15:59;95511.81;;;8.59;66.31
58092;BME280;43896;48.178;11.578;2023-02-23T06:18:25;95512.19;;;8.64;66.15
58092;BME280;43896;48.178;11.578;2023-02-23T06:20:51;95525.00;;;8.68;66.56
58092;BME280;43896;48.178;11.578;2023-02-23T06:23:16;95529.06;;;8.62;66.96
58092;BME280;43896;48.178;11.578;2023-02-23T06:25:43;95545.50;;;8.72;66.96
58092;BME280;43896;48.178;11.578;2023-02-23T06:28:09;95542.06;;;8.72;67.12
58092;BME280;43896;48.178;11.578;2023-02-23T06:30:36;95533.28;;;8.55;67.60
58092;BME280;43896;48.178;11.578;2023-02-23T06:33:01;95541.03;;;8.64;67.55
58092;BME280;43896;48.178;11.578;2023-02-23T06:35:26;95533.53;;;8.70;67.21
58092;BME280;43896;48.178;11.578;2023-02-23T06:37:52;95519.91;;;8.66;67.22
58092;BME280;43896;48.178;11.578;2023-02-23T06:40:18;95550.69;;;8.90;67.41
58092;BME280;43896;48.178;11.578;2023-02-23T06:42:43;95540.06;;;8.92;66.76
58092;BME280;43896;48.178;11.578;2023-02-23T06:45:09;95554.09;;;9.09;66.01
58092;BME280;43896;48.178;11.578;2023-02-23T06:47:35;95550.13;;;9.05;66.67
58092;BME280;43896;48.178;11.578;2023-02-23T06:50:00;95539.94;;;9.01;66.39
58092;BME280;43896;48.178;11.578;2023-02-23T06:52:27;95556.59;;;9.18;66.33
58092;BME280;43896;48.178;11.578;2023-02-23T06:54:52;95554.63;;;9.20;66.17
58092;BME280;43896;48.178;11.578;2023-02-23T06:57:17;95545.28;;;9.18;66.17
58092;BME280;43896;48.178;11.578;2023-02-23T06:59:43;95556.31;;;9.22;66.25
58092;BME280;43896;48.178;11.578;2023-02-23T07:02:12;95545.66;;;9.31;65.44
58092;BME280;43896;48.178;11.578;2023-02-23T07:04:37;95556.72;;;9.43;65.47
58092;BME280;43896;48.178;11.578;2023-02-23T07:07:02;95560.69;;;9.55;65.50
58092;BME280;43896;48.178;11.578;2023-02-23T07:09:28;95550.88;;;9.57;65.15
58092;BME280;43896;48.178;11.578;2023-02-23T07:11:54;95553.50;;;9.66;65.24
58092;BME280;43896;48.178;11.578;2023-02-23T07:14:19;95564.69;;;9.76;64.80
58092;BME280;43896;48.178;11.578;2023-02-23T07:16:44;95569.16;;;9.84;64.21
58092;BME280;43896;48.178;11.578;2023-02-23T07:19:10;95556.84;;;9.84;64.17
58092;BME280;43896;48.178;11.578;2023-02-23T07:21:35;95558.16;;;9.88;64.03
58092;BME280;43896;48.178;11.578;2023-02-23T07:24:01;95574.28;;;10.02;64.06
58092;BME280;43896;48.178;11.578;2023-02-23T07:26:29;95576.09;;;10.01;64.28
58092;BME280;43896;48.178;11.578;2023-02-23T07:28:54;95576.13;;;10.09;63.76
58092;BME280;43896;48.178;11.578;2023-02-23T07:31:20;95552.78;;;9.98;64.40
58092;BME280;43896;48.178;11.578;2023-02-23T07:33:45;95527.97;;;9.92;63.66
58092;BME280;43896;48.178;11.578;2023-02-23T07:36:10;95550.69;;;10.18;63.81
58092;BME280;43896;48.178;11.578;2023-02-23T07:38:36;95564.66;;;10.27;63.84
58092;BME280;43896;48.178;11.578;2023-02-23T07:41:02;95564.19;;;10.31;63.53
58092;BME280;43896;48.178;11.578;2023-02-23T07:43:28;95558.44;;;10.36;63.56
58092;BME280;43896;48.178;11.578;2023-02-23T07:45:53;95561.06;;;10.44;63.36
58092;BME280;43896;48.178;11.578;2023-02-23T07:48:22;95570.13;;;10.42;63.55
58092;BME280;43896;48.178;11.578;2023-02-23T07:50:48;95565.03;;;10.40;63.73
58092;BME280;43896;48.178;11.578;2023-02-23T07:53:13;95554.19;;;10.35;63.63
58092;BME280;43896;48.178;11.578;2023-02-23T07:55:39;95553.81;;;10.38;63.67
58092;BME280;43896;48.178;11.578;2023-02-23T07:58:05;95577.66;;;10.45;63.80
58092;BME280;43896;48.178;11.578;2023-02-23T08:00:33;95561.06;;;10.44;63.79
58092;BME280;43896;48.178;11.578;2023-02-23T08:02:58;95580.13;;;10.63;63.90
58092;BME280;43896;48.178;11.578;2023-02-23T08:05:26;95570.28;;;10.65;63.81
58092;BME280;43896;48.178;11.578;2023-02-23T08:07:52;95565.66;;;10.59;63.57
58092;BME280;43896;48.178;11.578;2023-02-23T08:10:18;95568.28;;;10.59;64.23
58092;BME280;43896;48.178;11.578;2023-02-23T08:12:43;95567.63;;;10.57;64.34
58092;BME280;43896;48.178;11.578;2023-02-23T08:15:09;95567.31;;;10.60;64.39
58092;BME280;43896;48.178;11.578;2023-02-23T08:17:36;95579.31;;;10.70;64.50
58092;BME280;43896;48.178;11.578;2023-02-23T08:20:01;95577.50;;;10.63;64.98
58092;BME280;43896;48.178;11.578;2023-02-23T08:22:27;95562.69;;;10.54;64.84
58092;BME280;43896;48.178;11.578;2023-02-23T08:24:52;95587.72;;;10.66;64.99
58092;BME280;43896;48.178;11.578;2023-02-23T08:27:18;95586.88;;;10.74;64.98
58092;BME280;43896;48.178;11.578;2023-02-23T08:29:44;95570.91;;;10.59;65.34
58092;BME280;43896;48.178;11.578;2023-02-23T08:32:09;95578.97;;;10.65;64.65
58092;BME280;43896;48.178;11.578;2023-02-23T08:34:41;95582.44;;;10.66;65.48
58092;BME280;43896;48.178;11.578;2023-02-23T08:37:07;95576.84;;;10.53;65.58
58092;BME280;43896;48.178;11.578;2023-02-23T08:39:32;95560.25;;;10.52;65.51
58092;BME280;43896;48.178;11.578;2023-02-23T08:41:58;95585.72;;;10.68;65.40
58092;BME280;43896;48.178;11.578;2023-02-23T08:44:23;95575.53;;;10.73;65.28
58092;BME280;43896;48.178;11.578;2023-02-23T08:46:48;95575.03;;;10.61;65.97
58092;BME280;43896;48.178;11.578;2023-02-23T08:49:14;95574.56;;;10.66;65.40
58092;BME280;43896;48.178;11.578;2023-02-23T08:51:39;95563.34;;;10.64;65.22
58092;BME280;43896;48.178;11.578;2023-02-23T08:54:06;95573.06;;;10.55;66.25
58092;BME280;43896;48.178;11.578;2023-02-23T08:56:38;95568.28;;;10.67;65.57
58092;BME280;43896;48.178;11.578;2023-02-23T08:59:04;95567.59;;;10.89;65.47
58092;BME280;43896;48.178;11.578;2023-02-23T09:01:29;95570.22;;;11.06;64.54
58092;BME280;43896;48.178;11.578;2023-02-23T09:03:55;95567.25;;;11.09;64.69
58092;BME280;43896;48.178;11.578;2023-02-23T09:06:22;95566.56;;;11.15;64.69
58092;BME280;43896;48.178;11.578;2023-02-23T09:08:49;95572.84;;;11.14;65.11
58092;BME280;43896;48.178;11.578;2023-02-23T09:11:15;95569.53;;;11.20;64.15
58092;BME280;43896;48.178;11.578;2023-02-23T09:13:40;95558.22;;;11.03;64.87
58092;BME280;43896;48.178;11.578;2023-02-23T09:16:06;95568.22;;;11.24;64.53
58092;BME280;43896;48.178;11.578;2023-02-23T09:18:32;95565.22;;;11.27;64.25
58092;BME280;43896;48.178;11.578;2023-02-23T09:20:57;95579.38;;;11.35;64.48
58092;BME280;43896;48.178;11.578;2023-02-23T09:23:22;95565.69;;;11.39;64.00
58092;BME280;43896;48.178;11.578;2023-02-23T09:25:52;95577.00;;;11.48;64.07
58092;BME280;43896;48.178;11.578;2023-02-23T09:28:18;95579.31;;;11.51;63.87
58092;BME280;43896;48.178;11.578;2023-02-23T09:30:45;95568.47;;;11.46;63.92
58092;BME280;43896;48.178;11.578;2023-02-23T09:33:11;95580.09;;;11.60;63.62
58092;BME280;43896;48.178;11.578;2023-02-23T09:35:37;95577.31;;;11.53;63.67
58092;BME280;43896;48.178;11.578;2023-02-23T09:38:04;95569.63;;;11.43;63.92
58092;BME280;43896;48.178;11.578;2023-02-23T09:40:45;95577.31;;;11.53;63.55
58092;BME280;43896;48.178;11.578;2023-02-23T09:43:15;95558.94;;;11.45;63.64
58092;BME280;43896;48.178;11.578;2023-02-23T09:48:18;95576.16;;;11.64;63.68
58092;BME280;43896;48.178;11.578;2023-02-23T09:50:50;95585.34;;;11.68;63.54
58092;BME280;43896;48.178;11.578;2023-02-23T09:55:47;95592.09;;;11.71;63.83
58092;BME280;43896;48.178;11.578;2023-02-23T09:58:21;95583.25;;;11.55;63.60
58092;BME280;43896;48.178;11.578;2023-02-23T10:01:15;95577.00;;;11.48;63.76
58092;BME280;43896;48.178;11.578;2023-02-23T10:03:50;95590.44;;;11.70;63.52
58092;BME280;43896;48.178;11.578;2023-02-23T10:06:17;95594.00;;;11.85;63.09
58092;BME280;43896;48.178;11.578;2023-02-23T10:11:34;95595.19;;;11.74;63.48
58092;BME280;43896;48.178;11.578;2023-02-23T10:14:11;95594.34;;;11.82;63.29
58092;BME280;43896;48.178;11.578;2023-02-23T10:16:42;95591.34;;;11.93;62.83
58092;BME280;43896;48.178;11.578;2023-02-23T10:21:50;95593.81;;;11.95;63.14
58092;BME280;43896;48.178;11.578;2023-02-23T10:24:26;95591.53;;;11.92;62.61
58092;BME280;43896;48.178;11.578;2023-02-23T10:27:06;95569.97;;;11.80;62.66
58092;BME280;43896;48.178;11.578;2023-02-23T10:29:39;95590.00;;;11.97;62.79
58092;BME280;43896;48.178;11.578;2023-02-23T10:32:53;95585.06;;;11.94;62.35
58092;BME280;43896;48.178;11.578;2023-02-23T10:35:17;95587.03;;;12.00;62.82
58092;BME280;43896;48.178;11.578;2023-02-23T10:37:45;95584.41;;;12.00;62.67
58092;BME280;43896;48.178;11.578;2023-02-23T10:40:19;95579.78;;;12.03;62.55
58092;BME280;43896;48.178;11.578;2023-02-23T10:42:46;95570.28;;;11.93;62.68
58092;BME280;43896;48.178;11.578;2023-02-23T10:45:14;95587.00;;;12.09;62.19
58092;BME280;43896;48.178;11.578;2023-02-23T10:47:55;95576.66;;;11.99;62.34
58092;BME280;43896;48.178;11.578;2023-02-23T10:50:23;95584.69;;;12.06;62.24
58092;BME280;43896;48.178;11.578;2023-02-23T10:52:54;95588.06;;;12.23;61.79
58092;BME280;43896;48.178;11.578;2023-02-23T10:58:00;95576.28;;;12.33;61.06
58092;BME280;43896;48.178;11.578;2023-02-23T11:00:29;95581.72;;;12.32;61.26
58092;BME280;43896;48.178;11.578;2023-02-23T11:02:58;95590.09;;;12.35;60.97
58092;BME280;43896;48.178;11.578;2023-02-23T11:05:34;95587.47;;;12.35;60.90
58092;BME280;43896;48.178;11.578;2023-02-23T11:08:30;95582.69;;;12.08;62.13
58092;BME280;43896;48.178;11.578;2023-02-23T11:13:35;95568.16;;;12.12;62.62
58092;BME280;43896;48.178;11.578;2023-02-23T11:16:12;95559.28;;;12.13;62.28
58092;BME280;43896;48.178;11.578;2023-02-23T11:18:42;95570.78;;;12.43;61.85
58092;BME280;43896;48.178;11.578;2023-02-23T11:21:09;95568.66;;;12.62;61.26
58092;BME280;43896;48.178;11.578;2023-02-23T11:23:35;95566.78;;;11.93;63.18
58092;BME280;43896;48.178;11.578;2023-02-23T11:26:04;95557.44;;;12.45;61.79
58092;BME280;43896;48.178;11.578;2023-02-23T11:28:33;95555.16;;;12.56;61.22
58092;BME280;43896;48.178;11.578;2023-02-23T11:31:14;95567.25;;;12.74;59.28
58092;BME280;43896;48.178;11.578;2023-02-23T11:33:41;95545.00;;;12.68;59.14
58092;BME280;43896;48.178;11.578;2023-02-23T11:36:16;95558.44;;;12.82;59.28
58092;BME280;43896;48.178;11.578;2023-02-23T11:38:44;95536.53;;;12.58;59.63
58092;BME280;43896;48.178;11.578;2023-02-23T11:41:21;95549.81;;;12.65;59.27
58092;BME280;43896;48.178;11.578;2023-02-23T11:43:51;95547.53;;;12.62;59.88
58092;BME280;43896;48.178;11.578;2023-02-23T11:46:20;95544.25;;;12.60;59.96
58092;BME280;43896;48.178;11.578;2023-02-23T11:48:52;95547.91;;;12.97;59.11
58092;BME280;43896;48.178;11.578;2023-02-23T11:51:25;95539.94;;;13.35;58.43
58092;BME280;43896;48.178;11.578;2023-02-23T11:53:53;95533.97;;;13.77;57.61
58092;BME280;43896;48.178;11.578;2023-02-23T11:56:20;95519.81;;;12.81;59.22
58092;BME280;43896;48.178;11.578;2023-02-23T11:58:49;95537.06;;;13.06;58.63
58092;BME280;43896;48.178;11.578;2023-02-23T12:01:19;95524.34;;;13.10;58.07
58092;BME280;43896;48.178;11.578;2023-02-23T12:03:55;95514.41;;;12.97;58.28
58092;BME280;43896;48.178;11.578;2023-02-23T12:06:36;95526.72;;;13.05;57.62
58092;BME280;43896;48.178;11.578;2023-02-23T12:09:10;95529.41;;;13.11;57.96
58092;BME280;43896;48.178;11.578;2023-02-23T12:11:47;95527.44;;;13.13;58.15
58092;BME280;43896;48.178;11.578;2023-02-23T12:14:45;95517.25;;;13.10;58.52
58092;BME280;43896;48.178;11.578;2023-02-23T12:17:27;95518.78;;;12.52;60.85
58092;BME280;43896;48.178;11.578;2023-02-23T12:19:55;95520.56;;;12.36;61.25
58092;BME280;43896;48.178;11.578;2023-02-23T12:22:32;95510.13;;;12.81;59.47
58092;BME280;43896;48.178;11.578;2023-02-23T12:28:10;95512.59;;;12.60;60.16
58092;BME280;43896;48.178;11.578;2023-02-23T12:30:52;95509.13;;;13.12;57.98
58092;BME280;43896;48.178;11.578;2023-02-23T12:33:41;95493.00;;;13.22;57.16
58092;BME280;43896;48.178;11.578;2023-02-23T12:38:47;95492.94;;;13.15;56.19
58092;BME280;43896;48.178;11.578;2023-02-23T12:41:32;95503.50;;;13.00;57.67
58092;BME280;43896;48.178;11.578;2023-02-23T12:44:03;95505.50;;;12.98;57.64
58092;BME280;43896;48.178;11.578;2023-02-23T12:46:46;95499.09;;;12.92;57.64
58092;BME280;43896;48.178;11.578;2023-02-23T12:49:33;95499.91;;;12.78;58.47
58092;BME280;43896;48.178;11.578;2023-02-23T12:52:09;95495.63;;;12.62;58.99
58092;BME280;43896;48.178;11.578;2023-02-23T12:54:38;95498.28;;;12.92;57.90
58092;BME280;43896;48.178;11.578;2023-02-23T12:57:16;95497.47;;;13.21;57.21
58092;BME280;43896;48.178;11.578;2023-02-23T13:03:16;95497.00;;;12.73;59.76
58092;BME280;43896;48.178;11.578;2023-02-23T13:06:03;95498.09;;;12.93;58.69
58092;BME280;43896;48.178;11.578;2023-02-23T13:14:46;95488.03;;;13.12;57.90
58092;BME280;43896;48.178;11.578;2023-02-23T13:19:49;95483.19;;;12.33;61.12
58092;BME280;43896;48.178;11.578;2023-02-23T13:22:39;95492.22;;;12.15;62.09
58092;BME280;43896;48.178;11.578;2023-02-23T13:27:48;95466.16;;;12.35;60.70
58092;BME280;43896;48.178;11.578;2023-02-23T13:30:16;95482.06;;;12.65;58.62
58092;BME280;43896;48.178;11.578;2023-02-23T13:32:41;95491.81;;;12.80;58.49
58092;BME280;43896;48.178;11.578;2023-02-23T13:35:12;95485.63;;;13.02;58.41
58092;BME280;43896;48.178;11.578;2023-02-23T13:37:43;95481.25;;;13.09;57.70
58092;BME280;43896;48.178;11.578;2023-02-23T13:43:12;95477.44;;;13.27;56.66
58092;BME280;43896;48.178;11.578;2023-02-23T13:56:43;95461.34;;;13.37;55.83
58092;BME280;43896;48.178;11.578;2023-02-23T13:59:19;95472.72;;;13.37;55.87
58092;BME280;43896;48.178;11.578;2023-02-23T14:01:48;95472.16;;;13.27;55.83
58092;BME280;43896;48.178;11.578;2023-02-23T14:04:24;95476.63;;;13.41;55.16
58092;BME280;43896;48.178;11.578;2023-02-23T14:07:24;95464.44;;;13.40;54.82
58092;BME280;43896;48.178;11.578;2023-02-23T14:09:56;95454.50;;;13.27;55.69
58092;BME280;43896;48.178;11.578;2023-02-23T14:14:51;95455.53;;;12.97;55.94
58092;BME280;43896;48.178;11.578;2023-02-23T14:22:20;95456.75;;;13.30;55.58
58092;BME280;43896;48.178;11.578;2023-02-23T14:25:01;95468.97;;;13.46;55.63
58092;BME280;43896;48.178;11.578;2023-02-23T14:27:36;95463.81;;;13.60;55.29
58092;BME280;43896;48.178;11.578;2023-02-23T14:32:43;95461.34;;;13.73;54.37
58092;BME280;43896;48.178;11.578;2023-02-23T14:37:59;95459.22;;;13.47;54.44
58092;BME280;43896;48.178;11.578;2023-02-23T14:40:31;95462.59;;;13.41;54.49